Sequoia — WDJ4306 — position and weather

sailwx.info

Track history (hours):
 
Tides and Currents Weather Stations Pressure Air Temp Water Temp Dewpoint Dewpoint Depression Visibility Wind Speed Wind Dir Waves Ship Positions

Sequoia

Owner: PropSF, LLC, Alameda, CA. More information available from US FCC via Universal Licensing System and Coast Guard Vessel Documentation Center.

Last reported at 2017-Nov-17 21:01 UTC. Time now 2017-Nov-17 21:23 UTC.
Position N 37°50' W 122°19'.

Length 17 m.

Type: Passenger vessel. MMSI: 367776380.

Date/timePositionNaut miles runAvg speedWind from/ knotsBaromVisibWave heightAir tempDewpointWater temp
2017-Nov-17 21:01N 37°50' W 122°19'0 0.0
2017-Nov-17 20:31N 37°50' W 122°19'0 0.0
2017-Nov-17 20:01N 37°50' W 122°19'0 0.0
2017-Nov-17 19:31N 37°50' W 122°19'0 0.0
2017-Nov-17 19:01N 37°50' W 122°19'0 0.0
2017-Nov-17 18:30N 37°50' W 122°19'0 0.0
2017-Nov-17 18:01N 37°50' W 122°19'0 0.0
2017-Nov-17 17:31N 37°50' W 122°19'0 0.1
2017-Nov-17 17:01N 37°50' W 122°19'918.1
2017-Nov-17 16:31N 37°42' W 122°21'2 3.6
2017-Nov-17 16:01N 37°40' W 122°22'1224.0
2017-Nov-17 15:31N 37°52' W 122°20'3 6.5
2017-Nov-17 15:01N 37°49' W 122°21'917.7
2017-Nov-17 14:31N 37°40' W 122°23'1325.2
2017-Nov-17 14:00N 37°52' W 122°24'2 4.9
2017-Nov-17 13:31N 37°54' W 122°22'5 9.4
2017-Nov-17 13:00N 37°50' W 122°19'0 0.0
2017-Nov-17 02:02N 37°50' W 122°19'0 4.7
2017-Nov-17 02:01N 37°51' W 122°19'3 5.1
2017-Nov-17 01:30N 37°50' W 122°22'1019.5
2017-Nov-17 01:00N 37°40' W 122°23'816.0
2017-Nov-17 00:31N 37°48' W 122°22'714.0
2017-Nov-17 00:00N 37°55' W 122°21'918.2
2017-Nov-16 23:31N 37°46' W 122°22'611.9
2017-Nov-16 23:00N 37°40' W 122°23'917.7
2017-Nov-16 22:31N 37°49' W 122°21'3 5.4
2017-Nov-16 22:00N 37°50' W 122°19'0 0.0
2017-Nov-16 21:31N 37°50' W 122°19'0 0.0
2017-Nov-16 21:01N 37°50' W 122°19'0 0.0
2017-Nov-16 20:31N 37°50' W 122°19'0 0.0
2017-Nov-16 18:17N 37°50' W 122°19'0 0.0
2017-Nov-16 18:00N 37°50' W 122°19'0 0.0
2017-Nov-16 17:30N 37°50' W 122°19'0 0.3
2017-Nov-16 17:01N 37°50' W 122°19'1019.5
2017-Nov-16 16:31N 37°41' W 122°22'0 0.6
2017-Nov-16 16:00N 37°41' W 122°22'1121.9
2017-Nov-16 15:30N 37°52' W 122°19'612.5
2017-Nov-16 15:01N 37°46' W 122°22'510.5
2017-Nov-16 14:31N 37°41' W 122°22'1326.0
2017-Nov-16 14:00N 37°54' W 122°24'2 4.5
2017-Nov-16 13:31N 37°55' W 122°21'5 9.2
2017-Nov-16 13:00N 37°50' W 122°19'0 0.0
2017-Nov-16 02:32N 37°50' W 122°19'0 0.0
2017-Nov-16 02:30N 37°50' W 122°19'2 3.6
2017-Nov-16 02:00N 37°51' W 122°21'4 7.9
2017-Nov-16 01:31N 37°47' W 122°21'815.4
2017-Nov-16 01:00N 37°40' W 122°23'816.0
2017-Nov-16 00:30N 37°48' W 122°22'713.7
2017-Nov-16 00:01N 37°55' W 122°21'918.6
2017-Nov-15 23:31N 37°45' W 122°22'611.0
2017-Nov-15 23:00N 37°40' W 122°23'611.2
2017-Nov-15 22:31N 37°45' W 122°22'611.0
2017-Nov-15 22:00N 37°50' W 122°19'0 0.0
2017-Nov-15 21:31N 37°50' W 122°19'0 0.0
2017-Nov-15 21:00N 37°50' W 122°19'0 0.0
2017-Nov-15 20:30N 37°50' W 122°19'0 0.0
2017-Nov-15 20:01N 37°50' W 122°19'0 0.0
2017-Nov-15 19:31N 37°50' W 122°19'0 0.0
2017-Nov-15 19:00N 37°50' W 122°19'0 0.0
2017-Nov-15 18:30N 37°50' W 122°19'0 0.0
2017-Nov-15 18:00N 37°50' W 122°19'0 0.0
2017-Nov-15 17:30N 37°50' W 122°19'0 0.0
2017-Nov-15 17:00N 37°50' W 122°19'3 6.7
2017-Nov-15 16:30N 37°48' W 122°21'815.5
2017-Nov-15 16:01N 37°40' W 122°22'1224.3
2017-Nov-15 15:30N 37°52' W 122°19'510.4
2017-Nov-15 15:01N 37°47' W 122°22'612.8
2017-Nov-15 14:31N 37°41' W 122°22'1326.9
2017-Nov-15 14:00N 37°54' W 122°24'2 4.7
2017-Nov-15 13:31N 37°55' W 122°21'3 6.2
2017-Nov-15 13:00N 37°52' W 122°23'3 0.3
2017-Nov-15 02:08N 37°50' W 122°19'216.6
2017-Nov-15 02:01N 37°51' W 122°21'3 5.8
2017-Nov-15 01:30N 37°48' W 122°21'816.8
2017-Nov-15 01:00N 37°40' W 122°23'815.5
2017-Nov-15 00:31N 37°48' W 122°22'714.5
2017-Nov-15 00:01N 37°55' W 122°21'1019.3
2017-Nov-14 23:31N 37°45' W 122°22'510.8
2017-Nov-14 23:01N 37°40' W 122°23'1121.0
2017-Nov-14 22:30N 37°50' W 122°20'1 1.9
2017-Nov-14 22:00N 37°50' W 122°19'0 0.0
2017-Nov-14 21:30N 37°50' W 122°19'0 0.0
2017-Nov-14 19:13N 37°50' W 122°19'0 0.0
2017-Nov-14 19:01N 37°50' W 122°19'0 0.0
2017-Nov-14 18:31N 37°50' W 122°19'0 0.0
2017-Nov-14 18:00N 37°50' W 122°19'0 0.0
2017-Nov-14 17:30N 37°50' W 122°19'0 0.1
2017-Nov-14 17:00N 37°50' W 122°19'713.7
2017-Nov-14 16:31N 37°44' W 122°21'1 1.9
2017-Nov-14 16:00N 37°43' W 122°21'918.5
2017-Nov-14 15:30N 37°52' W 122°19'713.2
2017-Nov-14 15:01N 37°46' W 122°22'4 8.0
2017-Nov-14 14:31N 37°42' W 122°22'1325.1
2017-Nov-14 14:00N 37°54' W 122°24'2 3.4
2017-Nov-14 13:31N 37°55' W 122°22'5 9.5
2017-Nov-14 13:00N 37°50' W 122°19'0 0.0
2017-Nov-14 02:13N 37°50' W 122°19'2 9.4
2017-Nov-14 02:01N 37°51' W 122°21'2 3.0
2017-Nov-14 01:31N 37°49' W 122°21'918.9
2017-Nov-14 01:00N 37°40' W 122°23'713.8
2017-Nov-14 00:31N 37°47' W 122°22'816.2
2017-Nov-14 00:00N 37°55' W 122°21'918.5
2017-Nov-13 23:31N 37°46' W 122°22'611.6
2017-Nov-13 23:00N 37°40' W 122°23'4 7.4
2017-Nov-13 22:30N 37°43' W 122°21'814.9
2017-Nov-13 22:00N 37°51' W 122°19'  
2017-Nov-11 02:04N 37°50' W 122°19'0 7.2
2017-Nov-11 02:01N 37°51' W 122°19'3 6.3
2017-Nov-11 01:31N 37°49' W 122°23'1019.2
2017-Nov-11 01:01N 37°40' W 122°23'917.2
2017-Nov-11 00:31N 37°48' W 122°23'611.7
2017-Nov-11 00:00N 37°54' W 122°22'918.2
2017-Nov-10 23:31N 37°45' W 122°22'510.9
2017-Nov-10 23:01N 37°40' W 122°23'4 7.1
2017-Nov-10 22:31N 37°43' W 122°21'714.9
2017-Nov-10 22:00N 37°50' W 122°19'0 0.0
2017-Nov-10 16:50N 37°50' W 122°19'413.4
2017-Nov-10 16:31N 37°47' W 122°21'611.5
2017-Nov-10 16:01N 37°41' W 122°22'1122.0
2017-Nov-10 15:31N 37°52' W 122°19'4 8.0
2017-Nov-10 15:01N 37°48' W 122°21'714.8
2017-Nov-10 14:31N 37°41' W 122°22'1224.7
2017-Nov-10 14:00N 37°53' W 122°24'3 5.1
2017-Nov-10 13:30N 37°55' W 122°21'4 8.2
2017-Nov-10 13:01N 37°51' W 122°21'2 0.2
2017-Nov-10 02:47N 37°50' W 122°19'0 0.0
2017-Nov-10 02:31N 37°50' W 122°19'0 0.5
2017-Nov-10 02:01N 37°51' W 122°19'2 4.9
2017-Nov-10 01:30N 37°50' W 122°22'1019.7
2017-Nov-10 01:01N 37°40' W 122°23'713.9
2017-Nov-10 00:31N 37°47' W 122°22'816.1
2017-Nov-10 00:01N 37°55' W 122°21'1020.1
2017-Nov-09 23:31N 37°45' W 122°21'510.0
2017-Nov-09 23:00N 37°40' W 122°23'4 8.9
2017-Nov-09 22:31N 37°44' W 122°21'7 3.1
2017-Nov-09 20:20N 37°50' W 122°19'0 0.0
2017-Nov-09 16:47N 37°51' W 122°19'415.6
2017-Nov-09 16:31N 37°47' W 122°21'611.6
2017-Nov-09 16:01N 37°41' W 122°22'1122.0
2017-Nov-09 15:31N 37°52' W 122°20'4 7.4
2017-Nov-09 15:01N 37°48' W 122°21'815.6
2017-Nov-09 14:31N 37°40' W 122°22'1224.8
2017-Nov-09 14:00N 37°53' W 122°23'3 5.4
2017-Nov-09 13:30N 37°55' W 122°21'5 9.1
2017-Nov-09 13:00N 37°51' W 122°19'0 0.0
2017-Nov-09 02:11N 37°50' W 122°19'0 2.7
2017-Nov-09 02:01N 37°51' W 122°19'2 4.3
2017-Nov-09 01:31N 37°50' W 122°22'1019.6
2017-Nov-09 01:01N 37°40' W 122°23'714.7
2017-Nov-09 00:31N 37°47' W 122°22'815.3
2017-Nov-09 00:00N 37°55' W 122°21'918.9
2017-Nov-08 23:31N 37°45' W 122°22'611.3
2017-Nov-08 23:00N 37°40' W 122°23'611.4
2017-Nov-08 22:31N 37°45' W 122°22'5 1.0
2017-Nov-08 17:02N 37°50' W 122°19'0 0.0
2017-Nov-08 17:00N 37°50' W 122°19'4 7.6
2017-Nov-08 16:31N 37°47' W 122°21'713.3
2017-Nov-08 16:01N 37°40' W 122°22'1122.6
2017-Nov-08 15:31N 37°52' W 122°20'3 6.8
2017-Nov-08 15:01N 37°48' W 122°21'816.0
2017-Nov-08 14:31N 37°41' W 122°22'1325.4
2017-Nov-08 14:00N 37°53' W 122°24'3 5.1
2017-Nov-08 13:31N 37°55' W 122°21'4 8.7
2017-Nov-08 13:01N 37°51' W 122°20'1 0.1
2017-Nov-08 02:03N 37°50' W 122°19'0 4.5
2017-Nov-08 02:01N 37°51' W 122°19'3 5.2
2017-Nov-08 01:30N 37°50' W 122°22'1019.8
2017-Nov-08 01:01N 37°40' W 122°23'714.2
2017-Nov-08 00:31N 37°47' W 122°22'815.6
2017-Nov-08 00:00N 37°55' W 122°21'918.8
2017-Nov-07 23:31N 37°45' W 122°22'611.1
2017-Nov-07 23:01N 37°40' W 122°23'611.5
2017-Nov-07 22:31N 37°45' W 122°21'510.5
2017-Nov-07 22:00N 37°50' W 122°19'  
Track history (hours):
 
Tides and Currents Weather Stations Pressure Air Temp Water Temp Dewpoint Dewpoint Depression Visibility Wind Speed Wind Dir Waves Ship Positions

Sequoia

Owner: PropSF, LLC, Alameda, CA. More information available from US FCC via Universal Licensing System and Coast Guard Vessel Documentation Center.

Last reported at 2017-Nov-17 21:01 UTC. Time now 2017-Nov-17 21:23 UTC.
Position N 37°50' W 122°19'.

Length 17 m.

Type: Passenger vessel. MMSI: 367776380.

Date/timePositionNaut miles runAvg speedWind from/ knotsBaromVisibWave heightAir tempDewpointWater temp
2017-Nov-17 21:01N 37°50' W 122°19'0 0.0
2017-Nov-17 20:31N 37°50' W 122°19'0 0.0
2017-Nov-17 20:01N 37°50' W 122°19'0 0.0
2017-Nov-17 19:31N 37°50' W 122°19'0 0.0
2017-Nov-17 19:01N 37°50' W 122°19'0 0.0
2017-Nov-17 18:30N 37°50' W 122°19'0 0.0
2017-Nov-17 18:01N 37°50' W 122°19'0 0.0
2017-Nov-17 17:31N 37°50' W 122°19'0 0.1
2017-Nov-17 17:01N 37°50' W 122°19'918.1
2017-Nov-17 16:31N 37°42' W 122°21'2 3.6
2017-Nov-17 16:01N 37°40' W 122°22'1224.0
2017-Nov-17 15:31N 37°52' W 122°20'3 6.5
2017-Nov-17 15:01N 37°49' W 122°21'917.7
2017-Nov-17 14:31N 37°40' W 122°23'1325.2
2017-Nov-17 14:00N 37°52' W 122°24'2 4.9
2017-Nov-17 13:31N 37°54' W 122°22'5 9.4
2017-Nov-17 13:00N 37°50' W 122°19'0 0.0
2017-Nov-17 02:02N 37°50' W 122°19'0 4.7
2017-Nov-17 02:01N 37°51' W 122°19'3 5.1
2017-Nov-17 01:30N 37°50' W 122°22'1019.5
2017-Nov-17 01:00N 37°40' W 122°23'816.0
2017-Nov-17 00:31N 37°48' W 122°22'714.0
2017-Nov-17 00:00N 37°55' W 122°21'918.2
2017-Nov-16 23:31N 37°46' W 122°22'611.9
2017-Nov-16 23:00N 37°40' W 122°23'917.7
2017-Nov-16 22:31N 37°49' W 122°21'3 5.4
2017-Nov-16 22:00N 37°50' W 122°19'0 0.0
2017-Nov-16 21:31N 37°50' W 122°19'0 0.0
2017-Nov-16 21:01N 37°50' W 122°19'0 0.0
2017-Nov-16 20:31N 37°50' W 122°19'0 0.0
2017-Nov-16 18:17N 37°50' W 122°19'0 0.0
2017-Nov-16 18:00N 37°50' W 122°19'0 0.0
2017-Nov-16 17:30N 37°50' W 122°19'0 0.3
2017-Nov-16 17:01N 37°50' W 122°19'1019.5
2017-Nov-16 16:31N 37°41' W 122°22'0 0.6
2017-Nov-16 16:00N 37°41' W 122°22'1121.9
2017-Nov-16 15:30N 37°52' W 122°19'612.5
2017-Nov-16 15:01N 37°46' W 122°22'510.5
2017-Nov-16 14:31N 37°41' W 122°22'1326.0
2017-Nov-16 14:00N 37°54' W 122°24'2 4.5
2017-Nov-16 13:31N 37°55' W 122°21'5 9.2
2017-Nov-16 13:00N 37°50' W 122°19'0 0.0
2017-Nov-16 02:32N 37°50' W 122°19'0 0.0
2017-Nov-16 02:30N 37°50' W 122°19'2 3.6
2017-Nov-16 02:00N 37°51' W 122°21'4 7.9
2017-Nov-16 01:31N 37°47' W 122°21'815.4
2017-Nov-16 01:00N 37°40' W 122°23'816.0
2017-Nov-16 00:30N 37°48' W 122°22'713.7
2017-Nov-16 00:01N 37°55' W 122°21'918.6
2017-Nov-15 23:31N 37°45' W 122°22'611.0
2017-Nov-15 23:00N 37°40' W 122°23'611.2
2017-Nov-15 22:31N 37°45' W 122°22'611.0
2017-Nov-15 22:00N 37°50' W 122°19'0 0.0
2017-Nov-15 21:31N 37°50' W 122°19'0 0.0
2017-Nov-15 21:00N 37°50' W 122°19'0 0.0
2017-Nov-15 20:30N 37°50' W 122°19'0 0.0
2017-Nov-15 20:01N 37°50' W 122°19'0 0.0
2017-Nov-15 19:31N 37°50' W 122°19'0 0.0
2017-Nov-15 19:00N 37°50' W 122°19'0 0.0
2017-Nov-15 18:30N 37°50' W 122°19'0 0.0
2017-Nov-15 18:00N 37°50' W 122°19'0 0.0
2017-Nov-15 17:30N 37°50' W 122°19'0 0.0
2017-Nov-15 17:00N 37°50' W 122°19'3 6.7
2017-Nov-15 16:30N 37°48' W 122°21'815.5
2017-Nov-15 16:01N 37°40' W 122°22'1224.3
2017-Nov-15 15:30N 37°52' W 122°19'510.4
2017-Nov-15 15:01N 37°47' W 122°22'612.8
2017-Nov-15 14:31N 37°41' W 122°22'1326.9
2017-Nov-15 14:00N 37°54' W 122°24'2 4.7
2017-Nov-15 13:31N 37°55' W 122°21'3 6.2
2017-Nov-15 13:00N 37°52' W 122°23'3 0.3
2017-Nov-15 02:08N 37°50' W 122°19'216.6
2017-Nov-15 02:01N 37°51' W 122°21'3 5.8
2017-Nov-15 01:30N 37°48' W 122°21'816.8
2017-Nov-15 01:00N 37°40' W 122°23'815.5
2017-Nov-15 00:31N 37°48' W 122°22'714.5
2017-Nov-15 00:01N 37°55' W 122°21'1019.3
2017-Nov-14 23:31N 37°45' W 122°22'510.8
2017-Nov-14 23:01N 37°40' W 122°23'1121.0
2017-Nov-14 22:30N 37°50' W 122°20'1 1.9
2017-Nov-14 22:00N 37°50' W 122°19'0 0.0
2017-Nov-14 21:30N 37°50' W 122°19'0 0.0
2017-Nov-14 19:13N 37°50' W 122°19'0 0.0
2017-Nov-14 19:01N 37°50' W 122°19'0 0.0
2017-Nov-14 18:31N 37°50' W 122°19'0 0.0
2017-Nov-14 18:00N 37°50' W 122°19'0 0.0
2017-Nov-14 17:30N 37°50' W 122°19'0 0.1
2017-Nov-14 17:00N 37°50' W 122°19'713.7
2017-Nov-14 16:31N 37°44' W 122°21'1 1.9
2017-Nov-14 16:00N 37°43' W 122°21'918.5
2017-Nov-14 15:30N 37°52' W 122°19'713.2
2017-Nov-14 15:01N 37°46' W 122°22'4 8.0
2017-Nov-14 14:31N 37°42' W 122°22'1325.1
2017-Nov-14 14:00N 37°54' W 122°24'2 3.4
2017-Nov-14 13:31N 37°55' W 122°22'5 9.5
2017-Nov-14 13:00N 37°50' W 122°19'0 0.0
2017-Nov-14 02:13N 37°50' W 122°19'2 9.4
2017-Nov-14 02:01N 37°51' W 122°21'2 3.0
2017-Nov-14 01:31N 37°49' W 122°21'918.9
2017-Nov-14 01:00N 37°40' W 122°23'713.8
2017-Nov-14 00:31N 37°47' W 122°22'816.2
2017-Nov-14 00:00N 37°55' W 122°21'918.5
2017-Nov-13 23:31N 37°46' W 122°22'611.6
2017-Nov-13 23:00N 37°40' W 122°23'4 7.4
2017-Nov-13 22:30N 37°43' W 122°21'814.9
2017-Nov-13 22:00N 37°51' W 122°19'  
2017-Nov-11 02:04N 37°50' W 122°19'0 7.2
2017-Nov-11 02:01N 37°51' W 122°19'3 6.3
2017-Nov-11 01:31N 37°49' W 122°23'1019.2
2017-Nov-11 01:01N 37°40' W 122°23'917.2
2017-Nov-11 00:31N 37°48' W 122°23'611.7
2017-Nov-11 00:00N 37°54' W 122°22'918.2
2017-Nov-10 23:31N 37°45' W 122°22'510.9
2017-Nov-10 23:01N 37°40' W 122°23'4 7.1
2017-Nov-10 22:31N 37°43' W 122°21'714.9
2017-Nov-10 22:00N 37°50' W 122°19'0 0.0
2017-Nov-10 16:50N 37°50' W 122°19'413.4
2017-Nov-10 16:31N 37°47' W 122°21'611.5
2017-Nov-10 16:01N 37°41' W 122°22'1122.0
2017-Nov-10 15:31N 37°52' W 122°19'4 8.0
2017-Nov-10 15:01N 37°48' W 122°21'714.8
2017-Nov-10 14:31N 37°41' W 122°22'1224.7
2017-Nov-10 14:00N 37°53' W 122°24'3 5.1
2017-Nov-10 13:30N 37°55' W 122°21'4 8.2
2017-Nov-10 13:01N 37°51' W 122°21'2 0.2
2017-Nov-10 02:47N 37°50' W 122°19'0 0.0
2017-Nov-10 02:31N 37°50' W 122°19'0 0.5
2017-Nov-10 02:01N 37°51' W 122°19'2 4.9
2017-Nov-10 01:30N 37°50' W 122°22'1019.7
2017-Nov-10 01:01N 37°40' W 122°23'713.9
2017-Nov-10 00:31N 37°47' W 122°22'816.1
2017-Nov-10 00:01N 37°55' W 122°21'1020.1
2017-Nov-09 23:31N 37°45' W 122°21'510.0
2017-Nov-09 23:00N 37°40' W 122°23'4 8.9
2017-Nov-09 22:31N 37°44' W 122°21'7 3.1
2017-Nov-09 20:20N 37°50' W 122°19'0 0.0
2017-Nov-09 16:47N 37°51' W 122°19'415.6
2017-Nov-09 16:31N 37°47' W 122°21'611.6
2017-Nov-09 16:01N 37°41' W 122°22'1122.0
2017-Nov-09 15:31N 37°52' W 122°20'4 7.4
2017-Nov-09 15:01N 37°48' W 122°21'815.6
2017-Nov-09 14:31N 37°40' W 122°22'1224.8
2017-Nov-09 14:00N 37°53' W 122°23'3 5.4
2017-Nov-09 13:30N 37°55' W 122°21'5 9.1
2017-Nov-09 13:00N 37°51' W 122°19'0 0.0
2017-Nov-09 02:11N 37°50' W 122°19'0 2.7
2017-Nov-09 02:01N 37°51' W 122°19'2 4.3
2017-Nov-09 01:31N 37°50' W 122°22'1019.6
2017-Nov-09 01:01N 37°40' W 122°23'714.7
2017-Nov-09 00:31N 37°47' W 122°22'815.3
2017-Nov-09 00:00N 37°55' W 122°21'918.9
2017-Nov-08 23:31N 37°45' W 122°22'611.3
2017-Nov-08 23:00N 37°40' W 122°23'611.4
2017-Nov-08 22:31N 37°45' W 122°22'5 1.0
2017-Nov-08 17:02N 37°50' W 122°19'0 0.0
2017-Nov-08 17:00N 37°50' W 122°19'4 7.6
2017-Nov-08 16:31N 37°47' W 122°21'713.3
2017-Nov-08 16:01N 37°40' W 122°22'1122.6
2017-Nov-08 15:31N 37°52' W 122°20'3 6.8
2017-Nov-08 15:01N 37°48' W 122°21'816.0
2017-Nov-08 14:31N 37°41' W 122°22'1325.4
2017-Nov-08 14:00N 37°53' W 122°24'3 5.1
2017-Nov-08 13:31N 37°55' W 122°21'4 8.7
2017-Nov-08 13:01N 37°51' W 122°20'1 0.1
2017-Nov-08 02:03N 37°50' W 122°19'0 4.5
2017-Nov-08 02:01N 37°51' W 122°19'3 5.2
2017-Nov-08 01:30N 37°50' W 122°22'1019.8
2017-Nov-08 01:01N 37°40' W 122°23'714.2
2017-Nov-08 00:31N 37°47' W 122°22'815.6
2017-Nov-08 00:00N 37°55' W 122°21'918.8
2017-Nov-07 23:31N 37°45' W 122°22'611.1
2017-Nov-07 23:01N 37°40' W 122°23'611.5
2017-Nov-07 22:31N 37°45' W 122°21'510.5
2017-Nov-07 22:00N 37°50' W 122°19'  

Dump ship's entire track history